sensor_id;sensor_type;location;lat;lon;timestamp;pressure;altitude;pressure_sealevel;temperature;humidity
74915;BME280;63475;45.140;-75.616;2023-10-19T00:01:50;100906.53;;;11.88;72.00
74915;BME280;63475;45.140;-75.616;2023-10-19T00:03:53;100904.09;;;11.85;72.14
74915;BME280;63475;45.140;-75.616;2023-10-19T00:05:58;100903.22;;;11.84;71.24
74915;BME280;63475;45.140;-75.616;2023-10-19T00:08:02;100902.38;;;11.84;71.83
74915;BME280;63475;45.140;-75.616;2023-10-19T00:10:07;100902.38;;;11.84;71.76
74915;BME280;63475;45.140;-75.616;2023-10-19T00:12:11;100902.63;;;11.81;71.91
74915;BME280;63475;45.140;-75.616;2023-10-19T00:14:18;100906.16;;;11.81;71.75
74915;BME280;63475;45.140;-75.616;2023-10-19T00:16:20;100904.53;;;11.79;71.35
74915;BME280;63475;45.140;-75.616;2023-10-19T00:18:31;100903.69;;;11.78;71.70
74915;BME280;63475;45.140;-75.616;2023-10-19T00:20:36;100897.28;;;11.68;71.45
74915;BME280;63475;45.140;-75.616;2023-10-19T00:22:51;100895.47;;;11.69;71.18
74915;BME280;63475;45.140;-75.616;2023-10-19T00:24:55;100908.59;;;11.72;70.92
74915;BME280;63475;45.140;-75.616;2023-10-19T00:26:57;100907.09;;;11.68;71.24
74915;BME280;63475;45.140;-75.616;2023-10-19T00:29:07;100915.03;;;11.69;71.11
74915;BME280;63475;45.140;-75.616;2023-10-19T00:31:28;100902.84;;;11.65;71.11
74915;BME280;63475;45.140;-75.616;2023-10-19T00:33:32;100905.50;;;11.65;71.19
74915;BME280;63475;45.140;-75.616;2023-10-19T00:35:34;100891.72;;;11.59;70.67
74915;BME280;63475;45.140;-75.616;2023-10-19T00:37:38;100907.28;;;11.65;71.18
74915;BME280;63475;45.140;-75.616;2023-10-19T00:39:44;100909.97;;;11.65;71.29
74915;BME280;63475;45.140;-75.616;2023-10-19T00:41:52;100915.41;;;11.63;71.07
74915;BME280;63475;45.140;-75.616;2023-10-19T00:44:00;100910.91;;;11.64;70.65
74915;BME280;63475;45.140;-75.616;2023-10-19T00:46:23;100914.56;;;11.63;70.59
74915;BME280;63475;45.140;-75.616;2023-10-19T00:48:34;100913.09;;;11.59;71.06
74915;BME280;63475;45.140;-75.616;2023-10-19T00:50:37;100913.09;;;11.59;70.56
74915;BME280;63475;45.140;-75.616;2023-10-19T00:52:40;100918.53;;;11.57;71.11
74915;BME280;63475;45.140;-75.616;2023-10-19T00:54:52;100923.97;;;11.56;70.81
74915;BME280;63475;45.140;-75.616;2023-10-19T00:56:58;100926.66;;;11.56;70.99
74915;BME280;63475;45.140;-75.616;2023-10-19T00:59:05;100929.44;;;11.54;70.41
74915;BME280;63475;45.140;-75.616;2023-10-19T01:01:24;100932.97;;;11.55;70.67
74915;BME280;63475;45.140;-75.616;2023-10-19T01:03:30;100927.06;;;11.49;70.65
74915;BME280;63475;45.140;-75.616;2023-10-19T01:05:37;100933.16;;;11.51;70.98
74915;BME280;63475;45.140;-75.616;2023-10-19T01:07:40;100933.28;;;11.50;70.67
74915;BME280;63475;45.140;-75.616;2023-10-19T01:09:44;100929.19;;;11.44;70.54
74915;BME280;63475;45.140;-75.616;2023-10-19T01:11:46;100936.25;;;11.45;70.76
74915;BME280;63475;45.140;-75.616;2023-10-19T01:13:54;100935.41;;;11.45;70.46
74915;BME280;63475;45.140;-75.616;2023-10-19T01:15:57;100933.69;;;11.44;70.17
74915;BME280;63475;45.140;-75.616;2023-10-19T01:18:01;100932.09;;;11.41;70.45
74915;BME280;63475;45.140;-75.616;2023-10-19T01:22:25;100925.38;;;11.36;70.66
74915;BME280;63475;45.140;-75.616;2023-10-19T01:24:29;100936.66;;;11.39;70.60
74915;BME280;63475;45.140;-75.616;2023-10-19T01:26:44;100932.53;;;11.35;71.26
74915;BME280;63475;45.140;-75.616;2023-10-19T01:28:49;100939.78;;;11.33;70.55
74915;BME280;63475;45.140;-75.616;2023-10-19T01:30:59;100937.22;;;11.32;71.16
74915;BME280;63475;45.140;-75.616;2023-10-19T01:33:08;100944.38;;;11.31;70.60
74915;BME280;63475;45.140;-75.616;2023-10-19T01:35:15;100941.91;;;11.28;70.56
74915;BME280;63475;45.140;-75.616;2023-10-19T01:37:17;100945.34;;;11.30;70.69
74915;BME280;63475;45.140;-75.616;2023-10-19T01:39:22;100938.69;;;11.23;70.38
74915;BME280;63475;45.140;-75.616;2023-10-19T01:41:25;100935.81;;;11.26;70.69
74915;BME280;63475;45.140;-75.616;2023-10-19T01:43:28;100942.88;;;11.27;70.55
74915;BME280;63475;45.140;-75.616;2023-10-19T01:45:34;100942.13;;;11.25;70.47
74915;BME280;63475;45.140;-75.616;2023-10-19T01:47:37;100943.94;;;11.25;71.23
74915;BME280;63475;45.140;-75.616;2023-10-19T01:49:42;100938.69;;;11.23;71.18
74915;BME280;63475;45.140;-75.616;2023-10-19T01:51:47;100937.72;;;11.24;71.21
74915;BME280;63475;45.140;-75.616;2023-10-19T01:53:50;100941.47;;;11.22;70.95
74915;BME280;63475;45.140;-75.616;2023-10-19T01:55:53;100945.19;;;11.19;70.90
74915;BME280;63475;45.140;-75.616;2023-10-19T01:58:00;100947.00;;;11.18;70.82
74915;BME280;63475;45.140;-75.616;2023-10-19T02:00:03;100944.34;;;11.18;70.65
74915;BME280;63475;45.140;-75.616;2023-10-19T02:02:13;100936.66;;;11.14;71.02
74915;BME280;63475;45.140;-75.616;2023-10-19T02:04:16;100941.88;;;11.15;70.95
74915;BME280;63475;45.140;-75.616;2023-10-19T02:06:18;100941.06;;;11.15;71.26
74915;BME280;63475;45.140;-75.616;2023-10-19T02:08:40;100943.81;;;11.13;71.53
74915;BME280;63475;45.140;-75.616;2023-10-19T02:10:47;100935.06;;;11.11;71.68
74915;BME280;63475;45.140;-75.616;2023-10-19T02:12:50;100935.16;;;11.10;71.49
74915;BME280;63475;45.140;-75.616;2023-10-19T02:14:57;100922.97;;;11.06;71.58
74915;BME280;63475;45.140;-75.616;2023-10-19T02:17:00;100934.41;;;11.08;71.42
74915;BME280;63475;45.140;-75.616;2023-10-19T02:19:06;100940.59;;;11.08;71.93
74915;BME280;63475;45.140;-75.616;2023-10-19T02:21:09;100935.38;;;11.07;71.15
74915;BME280;63475;45.140;-75.616;2023-10-19T02:23:14;100932.78;;;11.05;71.40
74915;BME280;63475;45.140;-75.616;2023-10-19T02:25:17;100931.94;;;11.05;71.40
74915;BME280;63475;45.140;-75.616;2023-10-19T02:27:19;100930.22;;;11.04;71.86
74915;BME280;63475;45.140;-75.616;2023-10-19T02:29:33;100936.53;;;11.03;71.93
74915;BME280;63475;45.140;-75.616;2023-10-19T02:31:40;100926.06;;;11.00;71.33
74915;BME280;63475;45.140;-75.616;2023-10-19T02:33:43;100914.81;;;10.95;71.76
74915;BME280;63475;45.140;-75.616;2023-10-19T02:35:48;100920.06;;;10.96;71.96
74915;BME280;63475;45.140;-75.616;2023-10-19T02:37:51;100912.16;;;10.95;71.81
74915;BME280;63475;45.140;-75.616;2023-10-19T02:39:53;100920.91;;;10.97;72.00
74915;BME280;63475;45.140;-75.616;2023-10-19T02:41:56;100912.25;;;10.93;72.36
74915;BME280;63475;45.140;-75.616;2023-10-19T02:44:17;100922.63;;;10.98;71.98
74915;BME280;63475;45.140;-75.616;2023-10-19T02:46:20;100907.06;;;10.92;72.50
74915;BME280;63475;45.140;-75.616;2023-10-19T02:51:06;100914.06;;;10.93;72.14
74915;BME280;63475;45.140;-75.616;2023-10-19T02:53:13;100903.63;;;10.90;71.94
74915;BME280;63475;45.140;-75.616;2023-10-19T02:55:16;100905.53;;;10.88;71.90
74915;BME280;63475;45.140;-75.616;2023-10-19T02:57:18;100903.84;;;10.87;72.01
74915;BME280;63475;45.140;-75.616;2023-10-19T02:59:24;100915.06;;;10.92;71.68
74915;BME280;63475;45.140;-75.616;2023-10-19T03:01:27;100900.41;;;10.85;71.94
74915;BME280;63475;45.140;-75.616;2023-10-19T03:03:33;100898.59;;;10.85;71.98
74915;BME280;63475;45.140;-75.616;2023-10-19T03:05:36;100906.59;;;10.85;72.05
74915;BME280;63475;45.140;-75.616;2023-10-19T03:07:38;100909.91;;;10.89;72.38
74915;BME280;63475;45.140;-75.616;2023-10-19T03:09:41;100901.38;;;10.83;72.06
74915;BME280;63475;45.140;-75.616;2023-10-19T03:11:57;100902.88;;;10.88;72.05
74915;BME280;63475;45.140;-75.616;2023-10-19T03:14:06;100901.38;;;10.83;72.68
74915;BME280;63475;45.140;-75.616;2023-10-19T03:16:09;100909.16;;;10.87;72.73
74915;BME280;63475;45.140;-75.616;2023-10-19T03:18:15;100895.28;;;10.81;72.40
74915;BME280;63475;45.140;-75.616;2023-10-19T03:20:17;100901.38;;;10.83;72.43
74915;BME280;63475;45.140;-75.616;2023-10-19T03:22:26;100898.78;;;10.82;72.28
74915;BME280;63475;45.140;-75.616;2023-10-19T03:24:30;100898.91;;;10.80;72.28
74915;BME280;63475;45.140;-75.616;2023-10-19T03:26:39;100896.22;;;10.80;72.42
74915;BME280;63475;45.140;-75.616;2023-10-19T03:28:51;100904.13;;;10.82;72.78
74915;BME280;63475;45.140;-75.616;2023-10-19T03:31:13;100903.47;;;10.78;72.43
74915;BME280;63475;45.140;-75.616;2023-10-19T03:33:20;100902.53;;;10.79;72.37
74915;BME280;63475;45.140;-75.616;2023-10-19T03:35:28;100898.25;;;10.77;73.38
74915;BME280;63475;45.140;-75.616;2023-10-19T03:37:31;100899.09;;;10.77;72.91
74915;BME280;63475;45.140;-75.616;2023-10-19T03:39:34;100894.72;;;10.76;72.82
74915;BME280;63475;45.140;-75.616;2023-10-19T03:41:41;100886.06;;;10.73;73.21
74915;BME280;63475;45.140;-75.616;2023-10-19T03:43:49;100890.53;;;10.72;73.11
74915;BME280;63475;45.140;-75.616;2023-10-19T03:45:54;100888.81;;;10.71;72.93
74915;BME280;63475;45.140;-75.616;2023-10-19T03:47:57;100884.44;;;10.70;73.09
74915;BME280;63475;45.140;-75.616;2023-10-19T03:50:03;100884.69;;;10.67;73.01
74915;BME280;63475;45.140;-75.616;2023-10-19T03:52:09;100885.63;;;10.66;73.17
74915;BME280;63475;45.140;-75.616;2023-10-19T03:54:12;100882.22;;;10.64;72.63
74915;BME280;63475;45.140;-75.616;2023-10-19T03:56:23;100873.47;;;10.62;73.25
74915;BME280;63475;45.140;-75.616;2023-10-19T03:58:26;100877.94;;;10.62;73.44
74915;BME280;63475;45.140;-75.616;2023-10-19T04:00:32;100881.47;;;10.62;72.87
74915;BME280;63475;45.140;-75.616;2023-10-19T04:02:36;100863.75;;;10.61;72.78
74915;BME280;63475;45.140;-75.616;2023-10-19T04:04:41;100877.84;;;10.63;72.95
74915;BME280;63475;45.140;-75.616;2023-10-19T04:06:48;100873.56;;;10.61;72.34
74915;BME280;63475;45.140;-75.616;2023-10-19T04:08:56;100868.13;;;10.62;72.84
74915;BME280;63475;45.140;-75.616;2023-10-19T04:10:59;100866.59;;;10.58;72.81
74915;BME280;63475;45.140;-75.616;2023-10-19T04:13:11;100866.41;;;10.61;73.32
74915;BME280;63475;45.140;-75.616;2023-10-19T04:15:15;100874.41;;;10.61;72.99
74915;BME280;63475;45.140;-75.616;2023-10-19T04:17:18;100874.50;;;10.60;73.03
74915;BME280;63475;45.140;-75.616;2023-10-19T04:19:23;100886.03;;;10.60;73.09
74915;BME280;63475;45.140;-75.616;2023-10-19T04:21:25;100885.19;;;10.60;73.00
74915;BME280;63475;45.140;-75.616;2023-10-19T04:23:28;100877.28;;;10.58;72.80
74915;BME280;63475;45.140;-75.616;2023-10-19T04:25:31;100873.84;;;10.56;73.00
74915;BME280;63475;45.140;-75.616;2023-10-19T04:27:33;100876.41;;;10.58;72.75
74915;BME280;63475;45.140;-75.616;2023-10-19T04:29:38;100870.22;;;10.57;72.31
74915;BME280;63475;45.140;-75.616;2023-10-19T04:31:43;100870.22;;;10.57;72.82
74915;BME280;63475;45.140;-75.616;2023-10-19T04:34:11;100868.53;;;10.56;72.66
74915;BME280;63475;45.140;-75.616;2023-10-19T04:36:15;100876.31;;;10.59;72.74
74915;BME280;63475;45.140;-75.616;2023-10-19T04:38:18;100880.91;;;10.57;72.56
74915;BME280;63475;45.140;-75.616;2023-10-19T04:40:21;100882.63;;;10.58;72.97
74915;BME280;63475;45.140;-75.616;2023-10-19T04:42:27;100890.53;;;10.60;72.65
74915;BME280;63475;45.140;-75.616;2023-10-19T04:44:30;100886.44;;;10.54;73.36
74915;BME280;63475;45.140;-75.616;2023-10-19T04:46:34;100888.91;;;10.57;72.84
74915;BME280;63475;45.140;-75.616;2023-10-19T04:48:40;100879.19;;;10.56;72.26
74915;BME280;63475;45.140;-75.616;2023-10-19T04:50:42;100889.66;;;10.59;73.07
74915;BME280;63475;45.140;-75.616;2023-10-19T04:52:45;100879.19;;;10.56;73.22
74915;BME280;63475;45.140;-75.616;2023-10-19T04:54:48;100886.25;;;10.57;72.85
74915;BME280;63475;45.140;-75.616;2023-10-19T04:56:50;100884.53;;;10.56;73.31
74915;BME280;63475;45.140;-75.616;2023-10-19T04:58:55;100884.63;;;10.55;73.50
74915;BME280;63475;45.140;-75.616;2023-10-19T05:00:57;100872.34;;;10.52;73.06
74915;BME280;63475;45.140;-75.616;2023-10-19T05:03:01;100884.63;;;10.55;73.09
74915;BME280;63475;45.140;-75.616;2023-10-19T05:05:04;100875.97;;;10.51;73.14
74915;BME280;63475;45.140;-75.616;2023-10-19T05:07:07;100873.00;;;10.56;73.05
74915;BME280;63475;45.140;-75.616;2023-10-19T05:09:14;100875.09;;;10.51;72.57
74915;BME280;63475;45.140;-75.616;2023-10-19T05:11:16;100872.34;;;10.52;72.47
74915;BME280;63475;45.140;-75.616;2023-10-19T05:13:19;100867.22;;;10.49;72.54
74915;BME280;63475;45.140;-75.616;2023-10-19T05:15:21;100871.69;;;10.48;72.91
74915;BME280;63475;45.140;-75.616;2023-10-19T05:17:24;100874.25;;;10.50;73.04
74915;BME280;63475;45.140;-75.616;2023-10-19T05:19:27;100872.53;;;10.49;73.04
74915;BME280;63475;45.140;-75.616;2023-10-19T05:21:29;100868.28;;;10.46;72.47
74915;BME280;63475;45.140;-75.616;2023-10-19T05:23:32;100870.84;;;10.48;72.44
74915;BME280;63475;45.140;-75.616;2023-10-19T05:25:36;100874.25;;;10.50;72.18
74915;BME280;63475;45.140;-75.616;2023-10-19T05:27:39;100865.63;;;10.46;73.01
74915;BME280;63475;45.140;-75.616;2023-10-19T05:29:41;100873.50;;;10.48;72.63
74915;BME280;63475;45.140;-75.616;2023-10-19T05:31:44;100869.97;;;10.47;72.00
74915;BME280;63475;45.140;-75.616;2023-10-19T05:33:46;100856.31;;;10.39;72.68
74915;BME280;63475;45.140;-75.616;2023-10-19T05:35:52;100866.59;;;10.45;72.73
74915;BME280;63475;45.140;-75.616;2023-10-19T05:37:55;100864.78;;;10.46;72.45
74915;BME280;63475;45.140;-75.616;2023-10-19T05:39:59;100869.34;;;10.44;72.46
74915;BME280;63475;45.140;-75.616;2023-10-19T05:42:01;100871.91;;;10.45;72.87
74915;BME280;63475;45.140;-75.616;2023-10-19T05:44:04;100867.63;;;10.43;72.69
74915;BME280;63475;45.140;-75.616;2023-10-19T05:46:07;100868.41;;;10.45;72.33
74915;BME280;63475;45.140;-75.616;2023-10-19T05:48:10;100862.09;;;10.46;72.87
74915;BME280;63475;45.140;-75.616;2023-10-19T05:50:13;100856.00;;;10.44;72.66
74915;BME280;63475;45.140;-75.616;2023-10-19T05:52:17;100858.78;;;10.42;73.08
74915;BME280;63475;45.140;-75.616;2023-10-19T05:54:20;100857.06;;;10.41;72.92
74915;BME280;63475;45.140;-75.616;2023-10-19T05:56:25;100857.72;;;10.45;73.11
74915;BME280;63475;45.140;-75.616;2023-10-19T05:58:28;100868.50;;;10.43;72.99
74915;BME280;63475;45.140;-75.616;2023-10-19T06:00:31;100867.75;;;10.41;72.80
74915;BME280;63475;45.140;-75.616;2023-10-19T06:02:34;100851.47;;;10.32;73.05
74915;BME280;63475;45.140;-75.616;2023-10-19T06:04:37;100865.16;;;10.40;73.20
74915;BME280;63475;45.140;-75.616;2023-10-19T06:06:40;100868.59;;;10.42;73.42
74915;BME280;63475;45.140;-75.616;2023-10-19T06:08:43;100869.56;;;10.41;73.07
74915;BME280;63475;45.140;-75.616;2023-10-19T06:10:51;100860.13;;;10.35;73.93
74915;BME280;63475;45.140;-75.616;2023-10-19T06:12:54;100863.47;;;10.39;74.03
74915;BME280;63475;45.140;-75.616;2023-10-19T06:14:56;100875.09;;;10.38;74.00
74915;BME280;63475;45.140;-75.616;2023-10-19T06:16:59;100867.84;;;10.40;73.59
74915;BME280;63475;45.140;-75.616;2023-10-19T06:19:03;100874.22;;;10.37;73.88
74915;BME280;63475;45.140;-75.616;2023-10-19T06:21:06;100878.59;;;10.38;73.90
74915;BME280;63475;45.140;-75.616;2023-10-19T06:23:09;100880.31;;;10.39;73.70
74915;BME280;63475;45.140;-75.616;2023-10-19T06:25:13;100868.22;;;10.34;73.62
74915;BME280;63475;45.140;-75.616;2023-10-19T06:27:19;100875.19;;;10.36;73.49
74915;BME280;63475;45.140;-75.616;2023-10-19T06:29:22;100877.00;;;10.36;73.46
74915;BME280;63475;45.140;-75.616;2023-10-19T06:31:29;100883.19;;;10.36;73.47
74915;BME280;63475;45.140;-75.616;2023-10-19T06:33:32;100873.38;;;10.37;73.76
74915;BME280;63475;45.140;-75.616;2023-10-19T06:35:37;100878.50;;;10.40;74.04
74915;BME280;63475;45.140;-75.616;2023-10-19T06:37:40;100870.69;;;10.37;74.09
74915;BME280;63475;45.140;-75.616;2023-10-19T06:39:43;100875.09;;;10.38;74.05
74915;BME280;63475;45.140;-75.616;2023-10-19T06:41:45;100861.38;;;10.30;74.07
74915;BME280;63475;45.140;-75.616;2023-10-19T06:43:50;100877.75;;;10.38;74.11
74915;BME280;63475;45.140;-75.616;2023-10-19T06:45:52;100873.56;;;10.34;74.09
74915;BME280;63475;45.140;-75.616;2023-10-19T06:47:56;100872.50;;;10.36;74.02
74915;BME280;63475;45.140;-75.616;2023-10-19T06:49:59;100873.38;;;10.37;73.98
74915;BME280;63475;45.140;-75.616;2023-10-19T06:52:03;100862.91;;;10.34;74.53
74915;BME280;63475;45.140;-75.616;2023-10-19T06:54:07;100867.47;;;10.32;74.98
74915;BME280;63475;45.140;-75.616;2023-10-19T06:56:10;100877.75;;;10.38;74.10
74915;BME280;63475;45.140;-75.616;2023-10-19T06:58:13;100859.94;;;10.38;74.89
74915;BME280;63475;45.140;-75.616;2023-10-19T07:00:18;100859.09;;;10.38;74.72
74915;BME280;63475;45.140;-75.616;2023-10-19T07:02:24;100858.31;;;10.36;74.62
74915;BME280;63475;45.140;-75.616;2023-10-19T07:04:29;100856.63;;;10.35;75.07
74915;BME280;63475;45.140;-75.616;2023-10-19T07:06:32;100839.94;;;10.31;75.14
74915;BME280;63475;45.140;-75.616;2023-10-19T07:08:35;100841.00;;;10.29;74.69
74915;BME280;63475;45.140;-75.616;2023-10-19T07:10:37;100848.81;;;10.32;75.01
74915;BME280;63475;45.140;-75.616;2023-10-19T07:12:48;100845.19;;;10.33;74.83
74915;BME280;63475;45.140;-75.616;2023-10-19T07:14:51;100850.53;;;10.33;75.14
74915;BME280;63475;45.140;-75.616;2023-10-19T07:16:54;100852.22;;;10.34;75.29
74915;BME280;63475;45.140;-75.616;2023-10-19T07:18:56;100842.53;;;10.33;75.48
74915;BME280;63475;45.140;-75.616;2023-10-19T07:21:01;100844.44;;;10.31;75.54
74915;BME280;63475;45.140;-75.616;2023-10-19T07:23:08;100839.19;;;10.29;75.52
74915;BME280;63475;45.140;-75.616;2023-10-19T07:25:21;100840.81;;;10.32;75.54
74915;BME280;63475;45.140;-75.616;2023-10-19T07:27:24;100832.06;;;10.30;75.75
74915;BME280;63475;45.140;-75.616;2023-10-19T07:29:39;100827.69;;;10.29;75.70
74915;BME280;63475;45.140;-75.616;2023-10-19T07:31:44;100831.09;;;10.31;75.58
74915;BME280;63475;45.140;-75.616;2023-10-19T07:33:47;100824.91;;;10.30;75.48
74915;BME280;63475;45.140;-75.616;2023-10-19T07:35:52;100827.69;;;10.29;75.79
74915;BME280;63475;45.140;-75.616;2023-10-19T07:37:56;100832.16;;;10.28;75.85
74915;BME280;63475;45.140;-75.616;2023-10-19T07:39:59;100830.34;;;10.29;75.92
74915;BME280;63475;45.140;-75.616;2023-10-19T07:42:02;100833.00;;;10.29;75.77
74915;BME280;63475;45.140;-75.616;2023-10-19T07:44:09;100824.44;;;10.24;75.64
74915;BME280;63475;45.140;-75.616;2023-10-19T07:46:11;100826.91;;;10.27;76.00
74915;BME280;63475;45.140;-75.616;2023-10-19T07:48:14;100826.91;;;10.27;76.05
74915;BME280;63475;45.140;-75.616;2023-10-19T07:50:17;100821.78;;;10.24;76.01
74915;BME280;63475;45.140;-75.616;2023-10-19T07:52:19;100819.00;;;10.25;76.03
74915;BME280;63475;45.140;-75.616;2023-10-19T07:54:22;100822.50;;;10.26;75.82
74915;BME280;63475;45.140;-75.616;2023-10-19T07:56:25;100827.84;;;10.26;76.11
74915;BME280;63475;45.140;-75.616;2023-10-19T07:58:28;100827.84;;;10.26;75.87
74915;BME280;63475;45.140;-75.616;2023-10-19T08:00:30;100823.69;;;10.22;76.30
74915;BME280;63475;45.140;-75.616;2023-10-19T08:02:39;100826.16;;;10.25;75.74
74915;BME280;63475;45.140;-75.616;2023-10-19T08:04:47;100816.94;;;10.16;76.27
74915;BME280;63475;45.140;-75.616;2023-10-19T08:06:50;100828.94;;;10.23;76.13
74915;BME280;63475;45.140;-75.616;2023-10-19T08:08:52;100819.31;;;10.21;76.08
74915;BME280;63475;45.140;-75.616;2023-10-19T08:10:55;100820.19;;;10.21;76.46
74915;BME280;63475;45.140;-75.616;2023-10-19T08:12:59;100814.09;;;10.19;76.30
74915;BME280;63475;45.140;-75.616;2023-10-19T08:15:02;100822.75;;;10.23;76.18
74915;BME280;63475;45.140;-75.616;2023-10-19T08:17:06;100821.97;;;10.21;76.52
74915;BME280;63475;45.140;-75.616;2023-10-19T08:19:11;100818.66;;;10.17;76.24
74915;BME280;63475;45.140;-75.616;2023-10-19T08:21:14;100827.31;;;10.21;75.85
74915;BME280;63475;45.140;-75.616;2023-10-19T08:23:16;100826.56;;;10.19;75.69
74915;BME280;63475;45.140;-75.616;2023-10-19T08:25:25;100827.22;;;10.22;76.00
74915;BME280;63475;45.140;-75.616;2023-10-19T08:27:51;100827.41;;;10.19;76.49
74915;BME280;63475;45.140;-75.616;2023-10-19T08:29:55;100820.47;;;10.17;76.55
74915;BME280;63475;45.140;-75.616;2023-10-19T08:31:57;100824.75;;;10.19;76.50
74915;BME280;63475;45.140;-75.616;2023-10-19T08:34:01;100821.13;;;10.20;76.30
74915;BME280;63475;45.140;-75.616;2023-10-19T08:36:05;100820.38;;;10.18;76.78
74915;BME280;63475;45.140;-75.616;2023-10-19T08:38:08;100809.81;;;10.17;76.59
74915;BME280;63475;45.140;-75.616;2023-10-19T08:40:13;100795.91;;;10.11;76.40
74915;BME280;63475;45.140;-75.616;2023-10-19T08:42:20;100810.66;;;10.17;76.63
74915;BME280;63475;45.140;-75.616;2023-10-19T08:44:23;100801.25;;;10.11;77.04
74915;BME280;63475;45.140;-75.616;2023-10-19T08:46:25;100800.09;;;10.15;77.11
74915;BME280;63475;45.140;-75.616;2023-10-19T08:48:28;100804.69;;;10.13;77.08
74915;BME280;63475;45.140;-75.616;2023-10-19T08:50:32;100811.63;;;10.16;76.95
74915;BME280;63475;45.140;-75.616;2023-10-19T08:52:40;100795.91;;;10.11;76.78
74915;BME280;63475;45.140;-75.616;2023-10-19T08:54:43;100800.09;;;10.15;76.80
74915;BME280;63475;45.140;-75.616;2023-10-19T08:56:46;100809.91;;;10.15;76.38
74915;BME280;63475;45.140;-75.616;2023-10-19T08:58:50;100790.78;;;10.08;76.57
74915;BME280;63475;45.140;-75.616;2023-10-19T09:00:53;100788.03;;;10.10;76.59
74915;BME280;63475;45.140;-75.616;2023-10-19T09:02:57;100790.69;;;10.10;77.04
74915;BME280;63475;45.140;-75.616;2023-10-19T09:05:10;100790.50;;;10.13;76.83
74915;BME280;63475;45.140;-75.616;2023-10-19T09:07:22;100792.31;;;10.12;76.44
74915;BME280;63475;45.140;-75.616;2023-10-19T09:09:28;100791.34;;;10.13;76.61
74915;BME280;63475;45.140;-75.616;2023-10-19T09:11:34;100784.81;;;10.05;76.89
74915;BME280;63475;45.140;-75.616;2023-10-19T09:13:48;100790.59;;;10.11;76.72
74915;BME280;63475;45.140;-75.616;2023-10-19T09:15:52;100780.44;;;10.04;77.30
74915;BME280;63475;45.140;-75.616;2023-10-19T09:18:17;100790.69;;;10.10;77.13
74915;BME280;63475;45.140;-75.616;2023-10-19T09:20:21;100794.13;;;10.12;76.92
74915;BME280;63475;45.140;-75.616;2023-10-19T09:22:36;100791.53;;;10.10;76.33
74915;BME280;63475;45.140;-75.616;2023-10-19T09:24:47;100794.22;;;10.10;76.86
74915;BME280;63475;45.140;-75.616;2023-10-19T09:26:51;100791.53;;;10.10;77.22
74915;BME280;63475;45.140;-75.616;2023-10-19T09:28:54;100789.94;;;10.08;76.62
74915;BME280;63475;45.140;-75.616;2023-10-19T09:30:57;100785.34;;;10.10;76.48
74915;BME280;63475;45.140;-75.616;2023-10-19T09:33:02;100789.09;;;10.07;76.94
74915;BME280;63475;45.140;-75.616;2023-10-19T09:35:06;100796.88;;;10.10;76.61
74915;BME280;63475;45.140;-75.616;2023-10-19T09:37:11;100783.31;;;10.01;77.10
74915;BME280;63475;45.140;-75.616;2023-10-19T09:39:15;100796.97;;;10.09;77.13
74915;BME280;63475;45.140;-75.616;2023-10-19T09:41:22;100798.97;;;10.05;76.43
74915;BME280;63475;45.140;-75.616;2023-10-19T09:43:33;100793.66;;;10.05;77.08
74915;BME280;63475;45.140;-75.616;2023-10-19T09:45:41;100800.69;;;10.06;76.92
74915;BME280;63475;45.140;-75.616;2023-10-19T09:47:49;100795.38;;;10.06;76.59
74915;BME280;63475;45.140;-75.616;2023-10-19T09:49:53;100792.78;;;10.05;76.48
74915;BME280;63475;45.140;-75.616;2023-10-19T09:51:56;100793.66;;;10.05;76.96
74915;BME280;63475;45.140;-75.616;2023-10-19T09:56:49;100793.66;;;10.05;76.38
74915;BME280;63475;45.140;-75.616;2023-10-19T09:59:47;100791.94;;;10.04;76.12
74915;BME280;63475;45.140;-75.616;2023-10-19T10:01:24;100790.13;;;10.05;76.14
74915;BME280;63475;45.140;-75.616;2023-10-19T10:05:49;100788.66;;;10.01;76.40
74915;BME280;63475;45.140;-75.616;2023-10-19T10:10:27;100774.66;;;9.97;76.34
74915;BME280;63475;45.140;-75.616;2023-10-19T10:12:31;100771.34;;;9.94;75.90
74915;BME280;63475;45.140;-75.616;2023-10-19T10:14:37;100781.72;;;9.98;75.87
74915;BME280;63475;45.140;-75.616;2023-10-19T10:16:41;100788.75;;;9.99;75.87
74915;BME280;63475;45.140;-75.616;2023-10-19T10:18:46;100797.50;;;10.01;75.84
74915;BME280;63475;45.140;-75.616;2023-10-19T10:23:20;100793.22;;;9.99;75.95
74915;BME280;63475;45.140;-75.616;2023-10-19T10:25:29;100792.38;;;9.98;75.69
74915;BME280;63475;45.140;-75.616;2023-10-19T10:27:36;100793.41;;;9.96;75.38
74915;BME280;63475;45.140;-75.616;2023-10-19T10:29:54;100796.00;;;9.97;75.78
74915;BME280;63475;45.140;-75.616;2023-10-19T10:31:57;100791.72;;;9.95;75.85
74915;BME280;63475;45.140;-75.616;2023-10-19T10:34:00;100791.72;;;9.95;76.21
74915;BME280;63475;45.140;-75.616;2023-10-19T10:36:08;100803.13;;;9.97;75.81
74915;BME280;63475;45.140;-75.616;2023-10-19T10:38:11;100794.28;;;9.96;75.77
74915;BME280;63475;45.140;-75.616;2023-10-19T10:40:16;100789.13;;;9.93;75.87
74915;BME280;63475;45.140;-75.616;2023-10-19T10:42:20;100783.16;;;9.90;76.10
74915;BME280;63475;45.140;-75.616;2023-10-19T10:44:45;100798.84;;;9.94;75.78
74915;BME280;63475;45.140;-75.616;2023-10-19T10:46:48;100799.69;;;9.95;75.77
74915;BME280;63475;45.140;-75.616;2023-10-19T10:48:51;100799.59;;;9.96;75.64
74915;BME280;63475;45.140;-75.616;2023-10-19T10:50:54;100784.56;;;9.95;75.59
74915;BME280;63475;45.140;-75.616;2023-10-19T10:53:00;100788.19;;;9.94;75.57
74915;BME280;63475;45.140;-75.616;2023-10-19T10:57:11;100777.81;;;9.90;75.61